.
WxDataArchive / Data Records for 2014-10-03
2014-10-02 October 2014 2014-10-04

Data Records for Friday, 03 October 2014

Time	Temp	Chill	HIndex	Humid	Dewpt	 Wind 	HiWind	WindDir	Rain 	Barom
-----	----	-----	------	-----	-----	------	------	-------	-----	-----
00:00	66.4	66.4	66.4	92	64.0	0	2	68	0.00	29.725 
00:05	66.4	66.4	66.4	91	63.7	0	3	68	0.00	29.725 
00:10	66.4	66.4	66.4	91	63.7	0	2	90	0.00	29.725 
00:15	66.4	66.4	66.4	90	63.4	0	1	90	0.00	29.713 
00:20	66.4	66.4	66.4	90	63.4	0	1	90	0.00	29.713 
00:25	66.4	66.4	66.4	89	63.1	0	1	90	0.00	29.713 
00:30	66.4	66.4	66.4	88	62.7	0	2	90	0.00	29.708 
00:35	66.4	66.4	66.4	88	62.7	0	1	90	0.00	29.708 
00:40	66.6	66.6	66.6	87	62.6	0	3	112	0.00	29.708 
00:45	66.6	66.6	66.6	86	62.3	0	2	90	0.00	29.697 
00:50	66.8	66.8	66.8	85	62.1	0	3	112	0.00	29.697 
00:55	66.9	66.9	66.9	84	61.9	0	2	112	0.00	29.697 
01:00	67.1	67.1	67.1	84	62.1	0	1	315	0.00	29.691 
01:05	67.3	67.3	67.3	83	62.0	1	4	315	0.00	29.691 
01:10	67.6	67.6	67.6	82	61.9	0	5	112	0.00	29.691 
01:15	67.6	67.6	67.6	82	61.9	0	3	45	0.00	29.677 
01:20	67.8	67.8	67.8	81	61.7	0	3	68	0.00	29.677 
01:25	67.9	67.9	67.9	81	61.8	0	2	68	0.00	29.677 
01:30	68.1	68.1	68.1	80	61.7	0	2	68	0.00	29.675 
01:35	68.3	68.3	68.3	80	61.9	0	2	90	0.00	29.675 
01:40	68.4	68.4	68.4	79	61.6	1	4	90	0.00	29.675 
01:45	68.6	68.6	68.6	78	61.5	1	6	90	0.00	29.667 
01:50	68.9	68.9	68.9	77	61.4	1	3	112	0.00	29.667 
01:55	69.1	69.1	69.1	77	61.6	1	4	90	0.00	29.667 
02:00	69.3	69.3	69.3	76	61.4	1	3	112	0.00	29.658 
02:05	69.4	69.4	69.4	76	61.5	1	3	90	0.00	29.658 
02:10	69.6	69.6	69.6	75	61.3	1	4	90	0.00	29.658 
02:15	69.6	69.6	69.6	75	61.3	1	4	112	0.00	29.640 
02:20	69.8	69.8	69.8	75	61.5	1	4	90	0.00	29.640 
02:25	69.8	69.8	69.8	75	61.5	0	2	90	0.00	29.640 
02:30	69.8	69.8	69.8	75	61.5	0	1	90	0.00	29.633 
02:35	69.8	69.8	69.8	74	61.1	1	3	90	0.00	29.633 
02:40	69.8	69.8	69.8	74	61.1	0	1	68	0.00	29.633 
02:45	69.9	69.9	69.9	74	61.2	1	4	112	0.00	29.616 
02:50	69.9	69.9	69.9	73	60.8	2	9	112	0.00	29.616 
02:55	70.1	70.1	70.1	73	61.0	1	3	68	0.00	29.616 
03:00	70.1	70.1	70.1	73	61.0	1	6	135	0.00	29.600 
03:05	70.3	70.3	70.3	73	61.2	1	4	112	0.00	29.600 
03:10	70.1	70.1	70.1	73	61.0	1	6	112	0.00	29.600 
03:15	70.1	70.1	70.1	73	61.0	1	3	112	0.00	29.587 
03:20	70.1	70.1	70.1	72	60.6	0	3	90	0.00	29.587 
03:25	70.1	70.1	70.1	72	60.6	1	6	90	0.00	29.587 
03:30	69.9	69.9	69.9	72	60.4	1	3	90	0.00	29.579 
03:35	69.9	69.9	69.9	72	60.4	1	6	90	0.00	29.579 
03:40	69.9	69.9	69.9	72	60.4	1	5	112	0.00	29.579 
03:45	69.8	69.8	69.8	72	60.4	1	4	90	0.00	29.574 
03:50	69.9	69.9	69.9	72	60.4	1	5	112	0.00	29.574 
03:55	69.9	69.9	69.9	72	60.4	1	4	135	0.00	29.574 
04:00	69.9	69.9	69.9	72	60.4	0	2	112	0.00	29.568 
04:05	69.8	69.8	69.8	72	60.4	0	3	135	0.00	29.568 
04:10	69.8	69.8	69.8	73	60.7	0	2	202	0.00	29.568 
04:15	69.8	69.8	69.8	73	60.7	1	3	158	0.00	29.557 
04:20	69.6	69.6	69.6	73	60.6	1	5	90	0.00	29.557 
04:25	69.6	69.6	69.6	73	60.6	1	4	68	0.00	29.557 
04:30	69.6	69.6	69.6	73	60.6	0	3	90	0.00	29.544 
04:35	69.4	69.4	69.4	73	60.4	1	5	68	0.00	29.544 
04:40	69.4	69.4	69.4	73	60.4	0	2	90	0.00	29.544 
04:45	69.4	69.4	69.4	73	60.4	1	5	90	0.00	29.533 
04:50	69.4	69.4	69.4	73	60.4	1	4	135	0.00	29.533 
04:55	69.4	69.4	69.4	73	60.4	2	5	68	0.00	29.533 
05:00	69.4	69.4	69.4	73	60.4	1	3	90	0.00	29.525 
05:05	69.4	69.4	69.4	73	60.4	0	1	90	0.00	29.525 
05:10	69.3	69.3	69.3	73	60.3	1	4	90	0.00	29.525 
05:15	69.3	69.3	69.3	73	60.3	1	3	90	0.00	29.514 
05:20	69.3	69.3	69.3	73	60.3	1	3	90	0.00	29.514 
05:25	69.3	69.3	69.3	74	60.6	1	3	90	0.00	29.514 
05:30	69.1	69.1	69.1	74	60.5	1	3	90	0.00	29.501 
05:35	69.1	69.1	69.1	75	60.8	1	3	90	0.00	29.501 
05:40	68.9	68.9	68.9	75	60.6	1	5	135	0.00	29.501 
05:45	68.9	68.9	68.9	75	60.6	1	4	112	0.00	29.489 
05:50	68.8	68.8	68.8	75	60.5	1	4	90	0.00	29.489 
05:55	68.8	68.8	68.8	76	60.9	1	5	112	0.00	29.489 
06:00	68.8	68.8	68.8	76	60.9	1	3	112	0.00	29.486 
06:05	68.8	68.8	68.8	76	60.9	1	5	135	0.00	29.486 
06:10	68.8	68.8	68.8	76	60.9	1	3	112	0.00	29.486 
06:15	68.8	68.8	68.8	77	61.3	1	4	112	0.00	29.485 
06:20	68.8	68.8	68.8	79	62.0	0	3	45	0.01	29.485 
06:25	68.4	68.4	68.4	81	62.3	1	5	68	0.01	29.485 
06:30	68.3	68.3	68.3	84	63.3	1	4	90	0.00	29.484 
06:35	67.9	67.9	67.9	85	63.2	1	5	68	0.00	29.484 
06:40	67.6	67.6	67.6	87	63.6	1	4	112	0.00	29.484 
06:45	67.4	67.4	67.4	88	63.7	1	4	112	0.00	29.471 
06:50	67.4	67.4	67.4	88	63.7	1	4	90	0.00	29.471 
06:55	67.4	67.4	67.4	88	63.7	1	5	68	0.00	29.471 
07:00	67.6	67.6	67.6	88	63.9	2	6	90	0.00	29.456 
07:05	67.6	67.6	67.6	88	63.9	2	12	68	0.00	29.456 
07:10	67.6	67.6	67.6	88	63.9	2	6	112	0.01	29.456 
07:15	67.6	67.6	67.6	88	63.9	2	5	68	0.00	29.454 
07:20	67.8	67.8	67.8	88	64.1	2	8	68	0.00	29.454 
07:25	67.8	67.8	67.8	89	64.4	1	3	112	0.00	29.454 
07:30	67.8	67.8	67.8	89	64.4	1	5	112	0.00	29.452 
07:35	67.9	67.9	67.9	89	64.5	2	6	90	0.00	29.452 
07:40	67.9	67.9	67.9	89	64.5	1	5	112	0.00	29.452 
07:45	67.9	67.9	67.9	89	64.5	3	10	90	0.00	29.438 
07:50	68.1	68.1	68.1	89	64.7	3	7	112	0.00	29.438 
07:55	68.1	68.1	68.1	89	64.7	3	10	90	0.00	29.438 
08:00	68.1	68.1	68.1	89	64.7	2	8	90	0.00	29.433 
08:05	67.9	67.9	67.9	89	64.5	2	9	90	0.00	29.433 
08:10	67.9	67.9	67.9	89	64.5	2	6	68	0.00	29.433 
08:15	67.9	67.9	67.9	89	64.5	2	7	248	0.00	29.441 
08:20	66.6	66.6	66.6	87	62.6	3	10	270	0.10	29.441 
08:25	65.0	65.0	65.0	88	61.4	2	7	270	0.02	29.441 
08:30	64.2	64.2	64.2	89	60.9	1	4	270	0.02	29.481 
08:35	63.9	63.9	63.9	91	61.2	0	3	270	0.04	29.481 
08:40	63.7	63.7	63.7	91	61.0	0	3	270	0.04	29.481 
08:45	63.4	63.4	63.4	92	61.0	0	2	292	0.04	29.489 
08:50	63.2	63.2	63.2	92	60.8	1	4	270	0.01	29.489 
08:55	63.2	63.2	63.2	92	60.8	0	2	270	0.02	29.489 
09:00	63.1	63.1	63.1	93	61.0	0	2	270	0.01	29.489 
09:05	63.1	63.1	63.1	93	61.0	0	4	270	0.01	29.489 
09:10	62.9	62.9	62.9	93	60.8	0	2	270	0.01	29.489 
09:15	62.9	62.9	62.9	93	60.8	0	2	270	0.00	29.500 
09:20	62.9	62.9	62.9	94	61.1	1	5	315	0.00	29.500 
09:25	62.9	62.9	62.9	94	61.1	1	5	270	0.00	29.500 
09:30	62.9	62.9	62.9	94	61.1	0	4	270	0.00	29.498 
09:35	62.9	62.9	62.9	94	61.1	0	3	225	0.00	29.498 
09:40	62.7	62.7	62.7	94	60.9	1	3	248	0.00	29.498 
09:45	62.7	62.7	62.7	94	60.9	1	3	248	0.00	29.504 
09:50	62.9	62.9	62.9	94	61.1	1	4	248	0.00	29.504 
09:55	62.9	62.9	62.9	94	61.1	1	5	292	0.00	29.504 
10:00	62.9	62.9	62.9	94	61.1	1	5	292	0.00	29.504 
10:05	62.9	62.9	62.9	94	61.1	1	5	270	0.00	29.504 
10:10	63.1	63.1	63.1	94	61.3	1	5	270	0.00	29.504 
10:15	63.1	63.1	63.1	94	61.3	0	3	248	0.00	29.506 
10:20	63.2	63.2	63.2	94	61.4	1	5	292	0.00	29.506 
10:25	63.2	63.2	63.2	94	61.4	1	3	292	0.00	29.506 
10:30	63.2	63.2	63.2	93	61.1	1	3	292	0.00	29.514 
10:35	63.2	63.2	63.2	93	61.1	1	5	248	0.00	29.514 
10:40	63.2	63.2	63.2	93	61.1	0	3	270	0.00	29.514 
10:45	63.4	63.4	63.4	93	61.3	1	4	270	0.00	29.521 
10:50	63.4	63.4	63.4	92	61.0	1	3	248	0.00	29.521 
10:55	63.5	63.5	63.5	92	61.1	0	4	248	0.00	29.521 
11:00	63.7	63.7	63.7	92	61.3	1	7	270	0.00	29.519 
11:05	63.9	63.9	63.9	91	61.2	0	2	270	0.00	29.519 
11:10	64.2	64.2	64.2	91	61.5	0	4	248	0.00	29.519 
11:15	64.3	64.3	64.3	90	61.3	1	3	270	0.00	29.514 
11:20	64.3	64.3	64.3	90	61.3	1	5	292	0.00	29.514 
11:25	64.3	64.3	64.3	89	61.0	1	4	292	0.00	29.514 
11:30	64.3	64.3	64.3	89	61.0	1	5	292	0.00	29.509 
11:35	64.5	64.5	64.5	88	60.9	0	3	292	0.00	29.509 
11:40	64.7	64.7	64.7	88	61.1	1	5	270	0.00	29.509 
11:45	65.0	65.0	65.0	87	61.0	2	5	270	0.00	29.523 
11:50	62.6	62.6	62.6	82	57.0	5	10	270	0.04	29.523 
11:55	60.5	60.5	60.5	86	56.3	2	6	270	0.02	29.523 
12:00	59.8	59.8	59.8	88	56.2	1	6	270	0.02	29.541 
12:05	59.5	59.5	59.5	90	56.6	1	3	270	0.01	29.541 
12:10	59.3	59.3	59.3	91	56.7	1	3	270	0.00	29.541 
12:15	59.6	59.6	59.6	92	57.3	0	1	270	0.00	29.538 
12:20	60.1	60.1	60.1	92	57.8	0	1	270	0.00	29.538 
12:25	60.5	60.5	60.5	93	58.5	0	1	270	0.00	29.538 
12:30	61.2	61.2	61.2	93	59.2	1	3	270	0.00	29.542 
12:35	61.6	61.6	61.6	93	59.6	1	3	270	0.00	29.542 
12:40	61.6	61.6	61.6	93	59.6	1	4	270	0.00	29.542 
12:45	61.5	61.5	61.5	93	59.5	3	6	292	0.00	29.561 
12:50	61.3	61.3	61.3	92	59.0	4	7	270	0.00	29.561 
12:55	61.3	61.3	61.3	92	59.0	4	9	292	0.00	29.561 
13:00	61.8	61.8	61.8	91	59.1	2	7	270	0.00	29.561 
13:05	62.0	62.0	62.0	89	58.7	4	6	270	0.00	29.561 
13:10	62.1	62.1	62.1	88	58.5	3	7	270	0.00	29.561 
13:15	62.0	62.0	62.0	86	57.8	4	6	270	0.00	29.563 
13:20	61.2	61.2	61.2	87	57.3	5	10	292	0.00	29.563 
13:25	61.2	61.2	61.2	88	57.6	4	9	270	0.00	29.563 
13:30	60.9	60.9	60.9	88	57.3	5	8	292	0.00	29.572 
13:35	60.7	60.7	60.7	88	57.1	3	5	270	0.00	29.572 
13:40	60.5	60.5	60.5	88	56.9	2	6	292	0.00	29.572 
13:45	60.7	60.7	60.7	89	57.4	2	5	270	0.00	29.577 
13:50	60.5	60.5	60.5	86	56.3	4	9	315	0.00	29.577 
13:55	60.5	60.5	60.5	84	55.6	4	7	270	0.00	29.577 
14:00	60.7	60.7	60.7	84	55.8	3	6	292	0.00	29.585 
14:05	60.7	60.7	60.7	83	55.5	4	7	270	0.00	29.585 
14:10	60.7	60.7	60.7	82	55.2	3	7	292	0.00	29.585 
14:15	60.5	60.5	60.5	82	55.0	3	9	270	0.00	29.595 
14:20	60.2	60.2	60.2	80	54.0	3	9	270	0.00	29.595 
14:25	60.1	60.1	60.1	80	53.9	4	6	292	0.00	29.595 
14:30	60.1	60.1	60.1	81	54.2	3	6	292	0.00	29.597 
14:35	60.1	60.1	60.1	81	54.2	2	5	292	0.00	29.597 
14:40	60.1	60.1	60.1	80	53.9	4	7	270	0.00	29.597 
14:45	60.2	60.2	60.2	79	53.7	3	9	270	0.00	29.600 
14:50	60.2	60.2	60.2	80	54.0	2	6	292	0.00	29.600 
14:55	60.1	60.1	60.1	79	53.6	4	6	270	0.00	29.600 
15:00	59.9	59.9	59.9	79	53.4	4	7	270	0.00	29.605 
15:05	59.8	59.8	59.8	80	53.6	2	6	270	0.00	29.605 
15:10	59.3	59.3	59.3	80	53.1	4	9	270	0.00	29.605 
15:15	59.2	59.2	59.2	80	53.0	3	11	270	0.00	29.615 
15:20	58.9	58.9	58.9	81	53.1	4	11	270	0.00	29.615 
15:25	58.3	58.3	58.3	84	53.5	4	9	292	0.00	29.615 
15:30	57.3	57.3	57.3	87	53.5	4	7	292	0.01	29.629 
15:35	56.3	56.3	56.3	88	52.8	4	9	315	0.00	29.629 
15:40	55.9	55.9	55.9	89	52.7	4	7	270	0.00	29.629 
15:45	55.7	55.7	55.7	90	52.8	2	7	270	0.01	29.634 
15:50	55.6	55.6	55.6	91	53.0	3	7	270	0.00	29.634 
15:55	55.6	55.6	55.6	91	53.0	3	7	270	0.00	29.634 
16:00	55.6	55.6	55.6	91	53.0	3	7	270	0.00	29.635 
16:05	55.7	55.7	55.7	91	53.1	3	6	270	0.00	29.635 
16:10	55.9	55.9	55.9	91	53.3	1	4	270	0.00	29.635 
16:15	56.2	56.2	56.2	91	53.6	2	6	270	0.00	29.637 
16:20	56.6	56.6	56.6	91	54.0	2	6	270	0.00	29.637 
16:25	57.0	57.0	57.0	90	54.1	2	4	270	0.00	29.637 
16:30	57.5	57.5	57.5	89	54.3	2	5	270	0.00	29.636 
16:35	57.5	57.5	57.5	87	53.7	3	6	270	0.00	29.636 
16:40	58.0	58.0	58.0	84	53.2	4	7	270	0.00	29.636 
16:45	58.6	58.6	58.6	82	53.1	3	6	270	0.00	29.637 
16:50	58.9	58.9	58.9	80	52.7	4	6	270	0.00	29.637 
16:55	59.0	59.0	59.0	79	52.5	3	5	270	0.00	29.637 
17:00	59.3	59.3	59.3	79	52.8	2	5	292	0.00	29.640 
17:05	59.8	59.8	59.8	77	52.6	3	5	270	0.00	29.640 
17:10	59.9	59.9	59.9	74	51.6	2	6	270	0.00	29.640 
17:15	60.1	60.1	60.1	73	51.4	2	5	270	0.00	29.639 
17:20	59.8	59.8	59.8	73	51.1	2	5	270	0.00	29.639 
17:25	59.6	59.6	59.6	73	50.9	1	4	270	0.00	29.639 
17:30	59.6	59.6	59.6	73	50.9	2	6	270	0.00	29.637 
17:35	59.8	59.8	59.8	72	50.8	2	6	270	0.00	29.637 
17:40	59.8	59.8	59.8	73	51.1	2	4	270	0.00	29.637 
17:45	59.8	59.8	59.8	71	50.4	1	5	270	0.00	29.640 
17:50	59.9	59.9	59.9	70	50.1	2	4	270	0.00	29.640 
17:55	59.9	59.9	59.9	70	50.1	2	5	270	0.00	29.640 
18:00	60.1	60.1	60.1	69	49.9	1	3	270	0.00	29.648 
18:05	60.1	60.1	60.1	69	49.9	1	3	270	0.00	29.648 
18:10	60.1	60.1	60.1	67	49.1	2	4	270	0.00	29.648 
18:15	60.1	60.1	60.1	68	49.5	1	3	270	0.00	29.648 
18:20	59.8	59.8	59.8	67	48.8	2	6	270	0.00	29.648 
18:25	59.6	59.6	59.6	68	49.0	0	3	270	0.00	29.648 
18:30	59.3	59.3	59.3	69	49.1	0	3	270	0.00	29.652 
18:35	59.2	59.2	59.2	70	49.4	0	1	270	0.00	29.652 
18:40	58.6	58.6	58.6	76	51.1	2	9	270	0.02	29.652 
18:45	57.0	57.0	57.0	81	51.2	1	4	270	0.03	29.670 
18:50	55.9	55.9	55.9	84	51.1	1	4	270	0.00	29.670 
18:55	55.3	55.3	55.3	86	51.2	0	1	270	0.00	29.670 
19:00	55.0	55.0	55.0	87	51.2	0	1	270	0.00	29.670 
19:05	54.7	54.7	54.7	88	51.2	0	1	270	0.00	29.670 
19:10	54.7	54.7	54.7	89	51.5	0	1	270	0.00	29.670 
19:15	54.5	54.5	54.5	89	51.3	0	1	270	0.00	29.671 
19:20	54.5	54.5	54.5	89	51.3	1	3	270	0.00	29.671 
19:25	54.7	54.7	54.7	89	51.5	1	4	270	0.00	29.671 
19:30	54.7	54.7	54.7	88	51.2	1	3	270	0.00	29.674 
19:35	54.1	54.1	54.1	86	50.0	4	8	270	0.00	29.674 
19:40	53.5	53.5	53.5	87	49.7	3	6	270	0.00	29.674 
19:45	53.2	53.2	53.2	87	49.4	2	5	270	0.00	29.685 
19:50	52.9	52.9	52.9	88	49.4	1	4	270	0.00	29.685 
19:55	52.9	52.9	52.9	88	49.4	1	3	270	0.00	29.685 
20:00	52.8	52.8	52.8	87	49.0	3	7	270	0.00	29.693 
20:05	52.5	52.5	52.5	84	47.8	2	7	270	0.00	29.693 
20:10	52.3	52.3	52.3	84	47.6	1	4	270	0.00	29.693 
20:15	52.0	52.0	52.0	83	47.0	2	6	292	0.00	29.707 
20:20	51.7	51.7	51.7	81	46.1	3	6	270	0.00	29.707 
20:25	51.4	51.4	51.4	79	45.1	3	7	270	0.00	29.707 
20:30	51.3	51.3	51.3	78	44.7	3	6	270	0.00	29.714 
20:35	51.1	51.1	51.1	77	44.1	4	9	270	0.00	29.714 
20:40	51.0	51.0	51.0	76	43.7	4	9	270	0.00	29.714 
20:45	51.0	51.0	51.0	74	43.0	5	10	270	0.00	29.724 
20:50	51.0	51.0	51.0	74	43.0	3	11	270	0.00	29.724 
20:55	51.0	51.0	51.0	74	43.0	4	7	270	0.00	29.724 
21:00	50.8	50.8	50.8	73	42.5	4	9	270	0.00	29.726 
21:05	50.8	50.8	50.8	75	43.2	2	6	270	0.00	29.726 
21:10	50.7	50.7	50.7	75	43.1	2	6	270	0.00	29.726 
21:15	50.5	50.5	50.5	74	42.5	3	9	270	0.00	29.727 
21:20	50.4	50.4	50.4	74	42.4	3	6	292	0.00	29.727 
21:25	50.2	50.2	50.2	74	42.2	3	6	270	0.00	29.727 
21:30	50.1	50.1	50.1	74	42.1	3	7	270	0.00	29.730 
21:35	50.1	50.1	50.1	73	41.8	4	9	270	0.00	29.730 
21:40	49.9	48.8	49.9	72	41.2	4	10	270	0.00	29.730 
21:45	49.9	49.9	49.9	72	41.2	3	6	292	0.00	29.733 
21:50	49.8	49.8	49.8	73	41.5	2	5	270	0.00	29.733 
21:55	49.6	49.6	49.6	73	41.3	3	7	270	0.00	29.733 
22:00	49.4	49.4	49.4	75	41.8	2	6	270	0.00	29.740 
22:05	49.1	49.1	49.1	76	41.9	2	6	270	0.00	29.740 
22:10	48.8	48.8	48.8	76	41.6	2	6	270	0.00	29.740 
22:15	48.6	48.6	48.6	77	41.7	2	6	270	0.00	29.740 
22:20	48.5	48.5	48.5	78	42.0	1	5	270	0.00	29.740 
22:25	48.2	48.2	48.2	80	42.3	1	3	270	0.00	29.740 
22:30	47.9	47.9	47.9	81	42.4	2	5	270	0.01	29.737 
22:35	47.6	47.6	47.6	82	42.4	2	4	270	0.00	29.737 
22:40	47.3	47.3	47.3	84	42.7	2	5	270	0.00	29.737 
22:45	47.0	47.0	47.0	85	42.7	1	5	270	0.00	29.735 
22:50	47.0	47.0	47.0	86	43.0	0	3	270	0.00	29.735 
22:55	46.8	46.8	46.8	87	43.1	1	4	270	0.00	29.735 
23:00	46.7	46.7	46.7	87	43.0	0	4	270	0.00	29.742 
23:05	46.5	46.5	46.5	88	43.1	0	4	270	0.00	29.742 
23:10	46.5	46.5	46.5	88	43.1	1	3	270	0.01	29.742 
23:15	46.5	46.5	46.5	88	43.1	0	2	270	0.00	29.739 
23:20	46.4	46.4	46.4	88	43.0	1	6	270	0.00	29.739 
23:25	46.4	46.4	46.4	89	43.3	0	2	270	0.00	29.739 
23:30	46.2	46.2	46.2	89	43.1	1	3	270	0.01	29.738 
23:35	46.0	46.0	46.0	89	42.9	1	4	270	0.00	29.738 
23:40	46.0	46.0	46.0	89	42.9	0	2	270	0.00	29.738 
23:45	45.7	45.7	45.7	89	42.6	1	4	270	0.00	29.741 
23:50	45.7	45.7	45.7	89	42.6	1	3	292	0.00	29.741 
23:55	45.5	45.5	45.5	89	42.4	1	4	292	0.00	29.741 

CoCoRaHS
IN-AL-39
A2 Web Hosting
Creative Commons License
GoDaddy
search engine by freefind advanced

loaded 2018-11-21 01:24:49 • last modified 2010-11-18 10:43:29
Privacy PolicyDisclaimer
• wx.awcolley.com is powered by PmWiki v.2002016 •
• all content (unless otherwise noted) © 2018 A W Colley